createdAt,value
2023-08-27T00:00:33.311Z,99695.16
2023-08-27T00:03:01.937Z,99694.09
2023-08-27T00:05:30.621Z,99697.88
2023-08-27T00:07:59.059Z,99697.88
2023-08-27T00:10:27.635Z,99693.53
2023-08-27T00:12:57.741Z,99698.44
2023-08-27T00:15:26.430Z,99703.84
2023-08-27T00:17:54.952Z,99714.06
2023-08-27T00:20:23.845Z,99707.50
2023-08-27T00:22:52.236Z,99708.56
2023-08-27T00:25:20.714Z,99709.63
2023-08-27T00:27:49.190Z,99704.25
2023-08-27T00:30:19.009Z,99699.31
2023-08-27T00:32:47.468Z,99703.66
2023-08-27T00:35:15.936Z,99713.88
2023-08-27T00:37:44.491Z,99706.84
2023-08-27T00:40:13.072Z,99711.44
2023-08-27T00:42:41.439Z,99714.34
2023-08-27T00:45:10.774Z,99725.16
2023-08-27T00:47:41.759Z,99724.09
2023-08-27T00:50:11.826Z,99737.59
2023-08-27T00:52:40.485Z,99735.75
2023-08-27T00:55:09.637Z,99732.69
2023-08-27T00:57:39.629Z,99729.41
2023-08-27T01:00:10.910Z,99726.09
2023-08-27T01:02:43.982Z,99719.03
2023-08-27T01:05:14.724Z,99716.94
2023-08-27T01:07:50.161Z,99721.31
2023-08-27T01:10:28.970Z,99719.03
2023-08-27T01:13:04.109Z,99721.16
2023-08-27T01:15:34.494Z,99721.16
2023-08-27T01:18:07.700Z,99719.78
2023-08-27T01:20:36.176Z,99732.22
2023-08-27T01:23:06.839Z,99727.88
2023-08-27T01:25:43.818Z,99724.91
2023-08-27T01:28:17.422Z,99730.31
2023-08-27T01:30:56.462Z,99717.88
2023-08-27T01:33:28.006Z,99709.19
2023-08-27T01:35:58.325Z,99708.13
2023-08-27T01:38:28.494Z,99700.50
2023-08-27T01:40:56.999Z,99692.31
2023-08-27T01:43:25.451Z,99690.41
2023-08-27T01:45:53.979Z,99686.22
2023-08-27T01:48:22.626Z,99672.75
2023-08-27T01:50:51.031Z,99661.66
2023-08-27T01:53:19.548Z,99656.84
2023-08-27T01:55:49.408Z,99653.31
2023-08-27T01:58:17.852Z,99633.94
2023-08-27T02:00:46.319Z,99623.13
2023-08-27T02:03:15.557Z,99617.22
2023-08-27T02:05:44.018Z,99616.41
2023-08-27T02:08:12.429Z,99617.59
2023-08-27T02:10:40.841Z,99613.00
2023-08-27T02:13:10.678Z,99602.63
2023-08-27T02:15:41.199Z,99597.72
2023-08-27T02:18:09.584Z,99591.50
2023-08-27T02:20:38.137Z,99586.59
2023-08-27T02:23:06.523Z,99589.63
2023-08-27T02:25:34.959Z,99594.69
2023-08-27T02:28:03.469Z,99593.28
2023-08-27T02:30:33.329Z,99585.44
2023-08-27T02:33:02.145Z,99584.94
2023-08-27T02:35:30.875Z,99583.94
2023-08-27T02:37:59.631Z,99591.84
2023-08-27T02:40:28.096Z,99585.56
2023-08-27T02:42:56.492Z,99583.47
2023-08-27T02:45:24.943Z,99600.06
2023-08-27T02:47:54.820Z,99631.84
2023-08-27T02:50:23.201Z,99625.50
2023-08-27T02:52:51.688Z,99642.38
2023-08-27T02:55:20.282Z,99635.66
2023-08-27T02:57:48.691Z,99647.91
2023-08-27T03:00:18.085Z,99652.53
2023-08-27T03:02:46.573Z,99661.94
2023-08-27T03:05:16.542Z,99656.22
2023-08-27T03:07:45.038Z,99667.72
2023-08-27T03:10:16.076Z,99663.91
2023-08-27T03:12:44.460Z,99665.91
2023-08-27T03:15:12.944Z,99681.75
2023-08-27T03:17:41.358Z,99662.41
2023-08-27T03:20:11.007Z,99663.59
2023-08-27T03:22:40.792Z,99676.03
2023-08-27T03:25:09.588Z,99672.28
2023-08-27T03:27:38.174Z,99663.97
2023-08-27T03:30:07.438Z,99656.13
2023-08-27T03:32:35.850Z,99653.03
2023-08-27T03:35:04.413Z,99648.34
2023-08-27T03:37:33.389Z,99641.25
2023-08-27T03:40:04.109Z,99643.69
2023-08-27T03:42:32.548Z,99653.28
2023-08-27T03:45:02.017Z,99647.28
2023-08-27T03:47:30.548Z,99644.59
2023-08-27T03:49:59.017Z,99639.06
2023-08-27T03:52:27.463Z,99651.63
2023-08-27T03:54:56.119Z,99647.16
2023-08-27T03:57:26.439Z,99636.97
2023-08-27T03:59:54.939Z,99621.91
2023-08-27T04:02:23.340Z,99618.66
2023-08-27T04:04:51.943Z,99609.34
2023-08-27T04:07:20.357Z,99621.75
2023-08-27T04:09:49.713Z,99610.53
2023-08-27T04:12:18.626Z,99611.91
2023-08-27T04:14:48.451Z,99626.81
2023-08-27T04:17:16.904Z,99611.69
2023-08-27T04:19:45.655Z,99616.63
2023-08-27T04:22:14.591Z,99611.84
2023-08-27T04:24:44.522Z,99610.78
2023-08-27T04:27:13.036Z,99603.75
2023-08-27T04:29:41.554Z,99607.84
2023-08-27T04:32:11.505Z,99617.34
2023-08-27T04:34:39.991Z,99611.97
2023-08-27T04:37:08.735Z,99607.63
2023-08-27T04:39:37.264Z,99609.41
2023-08-27T04:42:06.163Z,99611.06
2023-08-27T04:44:34.562Z,99612.09
2023-08-27T04:47:03.552Z,99618.88
2023-08-27T04:49:33.493Z,99615.59
2023-08-27T04:52:01.883Z,99618.09
2023-08-27T04:54:30.358Z,99623.47
2023-08-27T04:56:58.795Z,99628.84
2023-08-27T04:59:27.221Z,99645.00
2023-08-27T05:01:56.631Z,99636.94
2023-08-27T05:04:25.397Z,99630.34
2023-08-27T05:06:55.302Z,99638.56
2023-08-27T05:09:24.131Z,99632.59
2023-08-27T05:11:52.548Z,99633.06
2023-08-27T05:14:21.125Z,99613.16
2023-08-27T05:16:49.587Z,99616.91
2023-08-27T05:19:18.697Z,99625.56
2023-08-27T05:21:47.272Z,99629.06
2023-08-27T05:24:17.149Z,99628.00
2023-08-27T05:26:45.878Z,99626.97
2023-08-27T05:29:14.369Z,99632.72
2023-08-27T05:31:42.762Z,99606.13
2023-08-27T05:34:11.253Z,99611.31
2023-08-27T05:36:39.652Z,99605.47
2023-08-27T05:39:08.017Z,99591.78
2023-08-27T05:41:38.039Z,99575.16
2023-08-27T05:44:06.760Z,99574.72
2023-08-27T05:46:35.333Z,99577.75
2023-08-27T05:49:04.643Z,99580.22
2023-08-27T05:51:33.207Z,99585.81
2023-08-27T05:54:01.796Z,99587.00
2023-08-27T05:56:30.274Z,99590.06
2023-08-27T05:59:00.438Z,99580.69
2023-08-27T06:01:28.975Z,99583.53
2023-08-27T06:03:57.635Z,99584.13
2023-08-27T06:06:26.185Z,99587.78
2023-08-27T06:08:54.872Z,99581.66
2023-08-27T06:11:23.672Z,99548.63
2023-08-27T06:13:52.069Z,99568.31
2023-08-27T06:16:21.973Z,99570.31
2023-08-27T06:18:50.627Z,99565.75
2023-08-27T06:21:19.438Z,99549.34
2023-08-27T06:23:48.533Z,99537.38
2023-08-27T06:26:17.031Z,99542.66
2023-08-27T06:28:45.476Z,99550.13
2023-08-27T06:31:14.028Z,99540.88
2023-08-27T06:33:43.912Z,99542.41
2023-08-27T06:36:12.412Z,99558.22
2023-08-27T06:38:40.791Z,99567.59
2023-08-27T06:41:09.288Z,99570.25
2023-08-27T06:43:37.654Z,99578.72
2023-08-27T06:46:06.389Z,99581.03
2023-08-27T06:48:35.136Z,99585.50
2023-08-27T06:51:05.968Z,99579.13
2023-08-27T06:53:34.583Z,99567.38
2023-08-27T06:56:03.201Z,99556.94
2023-08-27T06:58:32.373Z,99558.31
2023-08-27T07:01:00.904Z,99546.16
2023-08-27T07:03:29.691Z,99545.78
2023-08-27T07:05:58.232Z,99539.09
2023-08-27T07:08:28.139Z,99517.91
2023-08-27T07:10:57.805Z,99525.25
2023-08-27T07:13:26.560Z,99534.19
2023-08-27T07:15:55.066Z,99541.31
2023-08-27T07:18:23.624Z,99541.41
2023-08-27T07:20:54.066Z,99519.81
2023-08-27T07:23:22.553Z,99516.06
2023-08-27T07:25:52.404Z,99523.78
2023-08-27T07:28:22.334Z,99530.19
2023-08-27T07:30:52.088Z,99520.75
2023-08-27T07:33:20.581Z,99528.88
2023-08-27T07:35:49.161Z,99532.44
2023-08-27T07:38:18.373Z,99535.88
2023-08-27T07:40:46.884Z,99546.78
2023-08-27T07:43:17.109Z,99531.56
2023-08-27T07:45:45.502Z,99527.63
2023-08-27T07:48:13.944Z,99537.63
2023-08-27T07:50:42.859Z,99542.34
2023-08-27T07:53:11.445Z,99534.66
2023-08-27T07:55:39.835Z,99543.66
2023-08-27T07:58:09.164Z,99540.81
2023-08-27T08:00:40.041Z,99534.69
2023-08-27T08:03:08.609Z,99532.06
2023-08-27T08:05:37.360Z,99536.97
2023-08-27T08:08:06.652Z,99546.28
2023-08-27T08:10:36.561Z,99544.44
2023-08-27T08:13:06.397Z,99538.31
2023-08-27T08:15:35.294Z,99532.63
2023-08-27T08:18:05.739Z,99528.41
2023-08-27T08:20:34.335Z,99530.47
2023-08-27T08:23:02.745Z,99534.81
2023-08-27T08:25:32.591Z,99532.69
2023-08-27T08:28:01.177Z,99539.88
2023-08-27T08:30:29.909Z,99537.53
2023-08-27T08:32:58.432Z,99522.50
2023-08-27T08:35:29.029Z,99528.06
2023-08-27T08:37:57.698Z,99528.69
2023-08-27T08:40:26.581Z,99531.19
2023-08-27T08:43:01.133Z,99533.22
2023-08-27T08:45:34.944Z,99534.34
2023-08-27T08:48:04.569Z,99538.13
2023-08-27T08:50:37.455Z,99540.66
2023-08-27T08:53:15.573Z,99543.41
2023-08-27T08:55:47.916Z,99548.38
2023-08-27T08:58:17.850Z,99530.09
2023-08-27T09:00:47.713Z,99524.72
2023-08-27T09:03:18.272Z,99530.19
2023-08-27T09:05:51.166Z,99540.25
2023-08-27T09:08:20.820Z,99542.84
2023-08-27T09:10:50.486Z,99540.19
2023-08-27T09:13:21.867Z,99540.53
2023-08-27T09:15:50.855Z,99536.69
2023-08-27T09:18:19.727Z,99526.72
2023-08-27T09:20:52.233Z,99520.53
2023-08-27T09:23:20.759Z,99510.56
2023-08-27T09:25:50.170Z,99513.78
2023-08-27T09:28:20.224Z,99517.56
2023-08-27T09:30:48.703Z,99527.28
2023-08-27T09:33:17.124Z,99531.56
2023-08-27T09:35:45.621Z,99525.63
2023-08-27T09:38:17.792Z,99536.47
2023-08-27T09:40:46.687Z,99535.06
2023-08-27T09:43:15.750Z,99541.31
2023-08-27T09:45:44.200Z,99542.09
2023-08-27T09:48:16.325Z,99543.91
2023-08-27T09:50:44.748Z,99540.66
2023-08-27T09:53:16.190Z,99546.69
2023-08-27T09:55:44.736Z,99541.78
2023-08-27T09:58:14.146Z,99544.81
2023-08-27T10:00:45.114Z,99540.53
2023-08-27T10:03:14.396Z,99543.31
2023-08-27T10:05:45.054Z,99538.22
2023-08-27T10:08:13.909Z,99537.94
2023-08-27T10:10:43.809Z,99528.75
2023-08-27T10:13:15.304Z,99520.13
2023-08-27T10:15:45.905Z,99513.06
2023-08-27T10:18:16.384Z,99520.00
2023-08-27T10:20:45.560Z,99518.88
2023-08-27T10:23:16.910Z,99520.25
2023-08-27T10:25:48.987Z,99524.41
2023-08-27T10:28:18.413Z,99522.25
2023-08-27T10:30:47.605Z,99515.28
2023-08-27T10:33:16.696Z,99513.13
2023-08-27T10:35:47.077Z,99504.22
2023-08-27T10:38:17.848Z,99493.31
2023-08-27T10:40:48.044Z,99486.78
2023-08-27T10:43:20.385Z,99502.38
2023-08-27T10:45:50.576Z,99515.41
2023-08-27T10:48:31.619Z,99512.72
2023-08-27T10:51:14.801Z,99506.31
2023-08-27T10:53:55.282Z,99500.16
2023-08-27T10:56:37.829Z,99499.41
2023-08-27T10:59:10.851Z,99502.38
2023-08-27T11:01:39.908Z,99509.50
2023-08-27T11:04:09.347Z,99506.00
2023-08-27T11:06:45.213Z,99502.97
2023-08-27T11:09:22.764Z,99513.84
2023-08-27T11:11:54.993Z,99531.19
2023-08-27T11:14:25.897Z,99531.38
2023-08-27T11:16:58.931Z,99516.53
2023-08-27T11:19:30.970Z,99512.47
2023-08-27T11:24:45.243Z,99483.88
2023-08-27T11:27:17.704Z,99479.81
2023-08-27T11:29:48.230Z,99469.50
2023-08-27T11:32:17.726Z,99468.81
2023-08-27T11:34:47.205Z,99460.16
2023-08-27T11:37:18.421Z,99454.91
2023-08-27T11:39:48.081Z,99450.88
2023-08-27T11:42:19.419Z,99456.34
2023-08-27T11:44:52.537Z,99450.47
2023-08-27T11:47:22.713Z,99449.16
2023-08-27T11:49:54.049Z,99434.56
2023-08-27T11:52:22.478Z,99443.50
2023-08-27T11:54:51.483Z,99438.66
2023-08-27T11:57:21.665Z,99443.75
2023-08-27T11:59:51.074Z,99429.25
2023-08-27T12:02:19.718Z,99431.81
2023-08-27T12:04:48.884Z,99433.69
2023-08-27T12:07:27.992Z,99431.53
2023-08-27T12:09:56.423Z,99439.91
2023-08-27T12:12:28.451Z,99433.50
2023-08-27T12:14:59.654Z,99431.19
2023-08-27T12:17:34.625Z,99436.22
2023-08-27T12:20:04.893Z,99425.69
2023-08-27T12:22:34.800Z,99413.25
2023-08-27T12:25:04.132Z,99416.50
2023-08-27T12:27:34.125Z,99407.66
2023-08-27T12:30:02.640Z,99408.22
2023-08-27T12:32:34.101Z,99403.25
2023-08-27T12:35:03.485Z,99406.28
2023-08-27T12:37:31.969Z,99411.94
2023-08-27T12:40:00.350Z,99423.44
2023-08-27T12:42:28.830Z,99414.59
2023-08-27T12:44:58.720Z,99411.03
2023-08-27T12:47:27.983Z,99416.78
2023-08-27T12:49:56.626Z,99416.28
2023-08-27T12:52:25.100Z,99420.88
2023-08-27T12:54:53.532Z,99421.75
2023-08-27T12:57:22.165Z,99425.41
2023-08-27T12:59:50.590Z,99434.88
2023-08-27T13:02:20.948Z,99440.63
2023-08-27T13:04:49.383Z,99440.63
2023-08-27T13:07:17.951Z,99432.00
2023-08-27T13:09:46.452Z,99440.13
2023-08-27T13:12:16.123Z,99434.88
2023-08-27T13:14:44.786Z,99418.34
2023-08-27T13:17:13.427Z,99423.19
2023-08-27T13:19:43.475Z,99427.97
2023-08-27T13:22:11.875Z,99423.06
2023-08-27T13:24:40.773Z,99411.63
2023-08-27T13:29:39.056Z,99402.44
2023-08-27T13:32:07.945Z,99414.38
2023-08-27T13:34:36.472Z,99417.84
2023-08-27T13:37:06.585Z,99417.03
2023-08-27T13:40:22.572Z,99404.06
2023-08-27T13:42:51.973Z,99404.66
2023-08-27T13:45:21.475Z,99402.44
2023-08-27T13:47:51.005Z,99398.41
2023-08-27T13:50:19.982Z,99399.41
2023-08-27T13:52:49.494Z,99394.00
2023-08-27T13:55:18.069Z,99384.81
2023-08-27T13:57:48.160Z,99377.84
2023-08-27T14:00:17.096Z,99375.78
2023-08-27T14:02:45.711Z,99361.72
2023-08-27T14:05:14.466Z,99381.53
2023-08-27T14:07:43.225Z,99383.09
2023-08-27T14:10:12.514Z,99386.59
2023-08-27T14:12:40.967Z,99396.34
2023-08-27T14:15:12.016Z,99393.00
2023-08-27T14:17:41.082Z,99396.47
2023-08-27T14:20:12.575Z,99384.03
2023-08-27T14:22:41.037Z,99385.03
2023-08-27T14:25:10.522Z,99378.16
2023-08-27T14:27:39.052Z,99382.75
2023-08-27T14:30:08.998Z,99386.84
2023-08-27T14:32:38.938Z,99388.72
2023-08-27T14:35:09.651Z,99398.88
2023-08-27T14:37:39.548Z,99400.81
2023-08-27T14:40:11.392Z,99378.41
2023-08-27T14:42:39.870Z,99371.53
2023-08-27T14:45:09.602Z,99381.13
2023-08-27T14:47:39.853Z,99379.94
2023-08-27T14:50:10.257Z,99389.44
2023-08-27T14:52:39.062Z,99370.47
2023-08-27T14:55:08.068Z,99369.91
2023-08-27T14:57:36.453Z,99371.69
2023-08-27T15:00:07.400Z,99383.38
2023-08-27T15:02:35.908Z,99389.03
2023-08-27T15:05:06.652Z,99388.97
2023-08-27T15:07:35.185Z,99383.38
2023-08-27T15:10:03.724Z,99388.69
2023-08-27T15:12:32.271Z,99392.06
2023-08-27T15:15:00.725Z,99385.09
2023-08-27T15:17:29.254Z,99385.03
2023-08-27T15:19:57.725Z,99377.25
2023-08-27T15:22:27.648Z,99372.34
2023-08-27T15:24:56.065Z,99362.91
2023-08-27T15:27:24.555Z,99354.63
2023-08-27T15:29:53.687Z,99356.16
2023-08-27T15:32:22.473Z,99357.00
2023-08-27T15:34:50.944Z,99354.41
2023-08-27T15:37:19.383Z,99355.56
2023-08-27T15:39:54.402Z,99360.28
2023-08-27T15:42:30.584Z,99365.09
2023-08-27T15:44:59.609Z,99369.06
2023-08-27T15:47:31.287Z,99375.22
2023-08-27T15:49:59.941Z,99385.41
2023-08-27T15:52:28.580Z,99386.47
2023-08-27T15:54:58.886Z,99387.53
2023-08-27T15:57:28.282Z,99374.75
2023-08-27T15:59:56.664Z,99385.91
2023-08-27T16:02:25.359Z,99397.84
2023-08-27T16:04:53.894Z,99401.03
2023-08-27T16:07:22.529Z,99384.25
2023-08-27T16:09:50.958Z,99378.50
2023-08-27T16:12:20.797Z,99376.06
2023-08-27T16:14:49.397Z,99370.69
2023-08-27T16:17:17.882Z,99379.34
2023-08-27T16:19:46.357Z,99387.44
2023-08-27T16:22:14.894Z,99377.72
2023-08-27T16:24:43.350Z,99390.63
2023-08-27T16:27:11.816Z,99383.09
2023-08-27T16:29:41.844Z,99379.94
2023-08-27T16:32:10.275Z,99380.72
2023-08-27T16:34:38.722Z,99383.91
2023-08-27T16:37:07.149Z,99380.63
2023-08-27T16:39:35.747Z,99379.84
2023-08-27T16:42:04.275Z,99376.88
2023-08-27T16:44:32.733Z,99368.22
2023-08-27T16:47:02.588Z,99348.19
2023-08-27T16:49:32.429Z,99351.00
2023-08-27T16:52:00.892Z,99352.16
2023-08-27T16:54:29.351Z,99357.47
2023-08-27T16:56:58.051Z,99378.22
2023-08-27T16:59:26.577Z,99376.81
2023-08-27T17:01:55.069Z,99362.28
2023-08-27T17:04:25.254Z,99372.75
2023-08-27T17:06:55.644Z,99380.38
2023-08-27T17:09:24.095Z,99376.75
2023-08-27T17:11:52.575Z,99379.47
2023-08-27T17:14:20.958Z,99382.28
2023-08-27T17:16:49.445Z,99388.25
2023-08-27T17:19:17.931Z,99393.06
2023-08-27T17:21:47.805Z,99386.75
2023-08-27T17:24:16.227Z,99386.97
2023-08-27T17:26:44.634Z,99379.31
2023-08-27T17:29:13.060Z,99386.50
2023-08-27T17:31:42.659Z,99379.19
2023-08-27T17:34:11.304Z,99372.03
2023-08-27T17:36:39.942Z,99357.72
2023-08-27T17:39:09.805Z,99362.38
2023-08-27T17:41:49.743Z,99365.88
2023-08-27T17:44:18.228Z,99361.06
2023-08-27T17:46:47.760Z,99357.78
2023-08-27T17:49:16.237Z,99378.22
2023-08-27T17:51:44.771Z,99388.69
2023-08-27T17:54:15.877Z,99382.06
2023-08-27T17:56:44.414Z,99380.44
2023-08-27T17:59:12.891Z,99373.31
2023-08-27T18:01:41.413Z,99376.44
2023-08-27T18:04:09.835Z,99395.91
2023-08-27T18:06:38.293Z,99407.31
2023-08-27T18:09:07.310Z,99411.84
2023-08-27T18:11:37.163Z,99411.97
2023-08-27T18:14:05.593Z,99416.81
2023-08-27T18:16:34.033Z,99429.81
2023-08-27T18:19:02.521Z,99426.91
2023-08-27T18:21:30.911Z,99440.97
2023-08-27T18:23:59.338Z,99434.25
2023-08-27T18:26:27.878Z,99426.69
2023-08-27T18:28:57.894Z,99434.78
2023-08-27T18:31:26.452Z,99444.13
2023-08-27T18:33:55.146Z,99442.72
2023-08-27T18:36:23.693Z,99440.47
2023-08-27T18:38:52.857Z,99446.47
2023-08-27T18:41:24.289Z,99445.63
2023-08-27T18:43:53.725Z,99447.72
2023-08-27T18:46:25.059Z,99455.81
2023-08-27T18:48:54.306Z,99453.44
2023-08-27T18:51:22.876Z,99459.00
2023-08-27T18:53:51.362Z,99466.66
2023-08-27T18:56:20.657Z,99474.09
2023-08-27T18:58:49.240Z,99479.34
2023-08-27T19:01:18.373Z,99469.94
2023-08-27T19:03:49.248Z,99465.50
2023-08-27T19:06:18.390Z,99471.06
2023-08-27T19:08:46.886Z,99475.56
2023-08-27T19:11:15.724Z,99471.06
2023-08-27T19:13:44.455Z,99486.44
2023-08-27T19:16:13.164Z,99473.28
2023-08-27T19:18:42.500Z,99471.75
2023-08-27T19:21:13.406Z,99473.22
2023-08-27T19:23:42.443Z,99481.06
2023-08-27T19:26:17.263Z,99484.50
2023-08-27T19:28:46.768Z,99482.09
2023-08-27T19:31:17.948Z,99489.34
2023-08-27T19:33:47.386Z,99477.47
2023-08-27T19:36:18.516Z,99464.19
2023-08-27T19:38:48.652Z,99466.56
2023-08-27T19:41:18.491Z,99465.69
2023-08-27T19:43:47.451Z,99457.78
2023-08-27T19:46:16.046Z,99460.00
2023-08-27T19:48:45.197Z,99451.66
2023-08-27T19:51:13.719Z,99450.41
2023-08-27T19:53:44.154Z,99456.53
2023-08-27T19:56:13.275Z,99471.34
2023-08-27T19:58:42.184Z,99475.38
2023-08-27T20:01:13.235Z,99482.34
2023-08-27T20:03:42.345Z,99493.03
2023-08-27T20:06:11.935Z,99485.41
2023-08-27T20:08:40.937Z,99508.75
2023-08-27T20:11:11.230Z,99511.22
2023-08-27T20:13:46.756Z,99504.38
2023-08-27T20:16:15.404Z,99516.16
2023-08-27T20:18:51.756Z,99509.53
2023-08-27T20:21:26.485Z,99490.94
2023-08-27T20:24:05.314Z,99494.66
2023-08-27T20:26:46.311Z,99495.53
2023-08-27T20:29:14.937Z,99487.31
2023-08-27T20:31:50.284Z,99477.16
2023-08-27T20:34:25.486Z,99444.94
2023-08-27T20:36:53.938Z,99464.34
2023-08-27T20:39:30.129Z,99446.56
2023-08-27T20:42:04.843Z,99457.28
2023-08-27T20:44:39.382Z,99453.44
2023-08-27T20:47:08.272Z,99451.44
2023-08-27T20:49:36.744Z,99457.16
2023-08-27T20:52:05.767Z,99469.94
2023-08-27T20:54:34.327Z,99467.47
2023-08-27T20:57:04.555Z,99469.06
2023-08-27T20:59:37.832Z,99482.69
2023-08-27T21:02:11.281Z,99492.50
2023-08-27T21:04:45.662Z,99487.69
2023-08-27T21:07:18.254Z,99504.56
2023-08-27T21:09:57.150Z,99511.94
2023-08-27T21:12:27.085Z,99516.09
2023-08-27T21:14:55.675Z,99511.19
2023-08-27T21:17:24.246Z,99503.97
2023-08-27T21:19:52.782Z,99503.28
2023-08-27T21:22:21.255Z,99518.78
2023-08-27T21:24:49.965Z,99527.53
2023-08-27T21:27:18.436Z,99533.09
2023-08-27T21:29:49.876Z,99537.22
2023-08-27T21:32:18.438Z,99555.78
2023-08-27T21:34:46.835Z,99536.56
2023-08-27T21:37:16.048Z,99525.66
2023-08-27T21:39:44.744Z,99530.84
2023-08-27T21:42:13.247Z,99528.41
2023-08-27T21:44:41.693Z,99499.69
2023-08-27T21:47:11.922Z,99508.97
2023-08-27T21:49:40.412Z,99502.16
2023-08-27T21:52:08.890Z,99513.44
2023-08-27T21:54:38.220Z,99519.03
2023-08-27T21:57:07.223Z,99505.97
2023-08-27T21:59:35.849Z,99530.81
2023-08-27T22:02:04.482Z,99524.16
2023-08-27T22:04:34.386Z,99538.44
2023-08-27T22:07:04.106Z,99537.84
2023-08-27T22:09:32.505Z,99544.06
2023-08-27T22:12:00.986Z,99536.63
2023-08-27T22:14:31.643Z,99525.44
2023-08-27T22:17:00.285Z,99531.41
2023-08-27T22:19:28.794Z,99557.81
2023-08-27T22:21:58.711Z,99558.47
2023-08-27T22:24:27.209Z,99566.34
2023-08-27T22:26:55.781Z,99554.81
2023-08-27T22:29:24.383Z,99549.13
2023-08-27T22:31:53.161Z,99547.47
2023-08-27T22:34:29.552Z,99556.28
2023-08-27T22:37:04.788Z,99551.97
2023-08-27T22:39:33.255Z,99546.00
2023-08-27T22:42:01.962Z,99549.13
2023-08-27T22:44:30.474Z,99556.94
2023-08-27T22:46:59.099Z,99559.41
2023-08-27T22:49:26.954Z,99577.97
2023-08-27T22:51:55.511Z,99571.34
2023-08-27T22:54:25.410Z,99582.09
2023-08-27T22:56:53.933Z,99567.47
2023-08-27T22:59:22.743Z,99564.34
2023-08-27T23:01:51.831Z,99554.66
2023-08-27T23:04:20.906Z,99523.47
2023-08-27T23:06:49.675Z,99541.84
2023-08-27T23:09:18.264Z,99564.94
2023-08-27T23:11:48.110Z,99570.91
2023-08-27T23:14:17.086Z,99566.97
2023-08-27T23:16:45.541Z,99568.41
2023-08-27T23:19:14.069Z,99582.88
2023-08-27T23:21:42.459Z,99580.78
2023-08-27T23:24:11.262Z,99574.56
2023-08-27T23:26:39.732Z,99571.69
2023-08-27T23:29:09.596Z,99578.09
2023-08-27T23:31:38.152Z,99581.22
2023-08-27T23:34:06.742Z,99578.38
2023-08-27T23:36:35.204Z,99583.75
2023-08-27T23:39:05.364Z,99574.25
2023-08-27T23:41:33.907Z,99585.47
2023-08-27T23:44:02.513Z,99593.16
2023-08-27T23:46:32.757Z,99594.19
2023-08-27T23:49:01.423Z,99603.72
2023-08-27T23:51:29.820Z,99605.00
2023-08-27T23:53:58.296Z,99604.25
2023-08-27T23:56:26.719Z,99609.81
2023-08-27T23:58:55.157Z,99609.59
